createdAt,value
2022-09-02T00:00:28.663Z,0
2022-09-02T00:01:28.717Z,0
2022-09-02T00:02:29.406Z,0
2022-09-02T00:03:30.211Z,0
2022-09-02T00:04:28.890Z,0
2022-09-02T00:05:28.858Z,0
2022-09-02T00:06:28.591Z,0
2022-09-02T00:07:28.852Z,0
2022-09-02T00:08:29.129Z,0
2022-09-02T00:09:28.812Z,0
2022-09-02T00:10:28.806Z,0
2022-09-02T00:11:28.922Z,0
2022-09-02T00:12:28.524Z,0
2022-09-02T00:13:28.701Z,0
2022-09-02T00:14:28.762Z,0
2022-09-02T00:15:28.994Z,0
2022-09-02T00:16:29.018Z,0
2022-09-02T00:17:28.448Z,0
2022-09-02T00:18:28.696Z,0
2022-09-02T00:19:28.166Z,0
2022-09-02T00:20:28.668Z,0
2022-09-02T00:21:28.932Z,0
2022-09-02T00:22:28.650Z,0
2022-09-02T00:23:31.931Z,0
2022-09-02T00:24:28.622Z,0
2022-09-02T00:25:28.611Z,0
2022-09-02T00:26:28.601Z,0
2022-09-02T00:27:28.329Z,0
2022-09-02T00:28:28.726Z,0
2022-09-02T00:29:28.815Z,0
2022-09-02T00:30:28.294Z,0
2022-09-02T00:31:28.737Z,0
2022-09-02T00:32:28.525Z,0
2022-09-02T00:33:28.082Z,0
2022-09-02T00:34:27.993Z,0
2022-09-02T00:35:28.741Z,0
2022-09-02T00:36:28.740Z,0
2022-09-02T00:37:27.976Z,0
2022-09-02T00:38:28.450Z,0
2022-09-02T00:39:28.441Z,0
2022-09-02T00:40:28.440Z,0
2022-09-02T00:41:28.416Z,0
2022-09-02T00:42:28.669Z,0
2022-09-02T00:43:28.286Z,0
2022-09-02T00:44:28.629Z,0
2022-09-02T00:45:28.906Z,0
2022-09-02T00:46:28.634Z,0
2022-09-02T00:47:28.084Z,0
2022-09-02T00:48:28.069Z,0
2022-09-02T00:49:28.306Z,0
2022-09-02T00:50:30.235Z,0
2022-09-02T00:51:28.751Z,0
2022-09-02T00:52:28.842Z,0
2022-09-02T00:53:28.713Z,0
2022-09-02T00:54:28.803Z,0
2022-09-02T00:55:28.499Z,0
2022-09-02T00:56:27.711Z,0
2022-09-02T00:57:28.215Z,0
2022-09-02T00:58:28.455Z,0
2022-09-02T00:59:28.192Z,0
2022-09-02T01:00:34.714Z,0
2022-09-02T01:01:28.786Z,0
2022-09-02T01:02:28.780Z,0
2022-09-02T01:03:28.405Z,0
2022-09-02T01:04:28.394Z,0
2022-09-02T01:05:28.120Z,0
2022-09-02T01:06:28.571Z,0
2022-09-02T01:07:28.092Z,0
2022-09-02T01:08:27.828Z,0
2022-09-02T01:09:27.561Z,0
2022-09-02T01:10:28.051Z,0
2022-09-02T01:11:28.048Z,0
2022-09-02T01:12:27.766Z,0
2022-09-02T01:13:28.887Z,0
2022-09-02T01:14:31.022Z,0
2022-09-02T01:15:27.735Z,0
2022-09-02T01:16:28.152Z,0
2022-09-02T01:17:28.224Z,0
2022-09-02T01:18:27.965Z,0
2022-09-02T01:19:27.944Z,0
2022-09-02T01:20:31.441Z,0
2022-09-02T01:21:27.661Z,0
2022-09-02T01:22:28.158Z,0
2022-09-02T01:23:31.168Z,0
2022-09-02T01:24:27.625Z,0
2022-09-02T01:25:28.125Z,0
2022-09-02T01:26:27.859Z,0
2022-09-02T01:27:27.854Z,0
2022-09-02T01:28:28.119Z,0
2022-09-02T01:29:27.572Z,0
2022-09-02T01:30:27.816Z,0
2022-09-02T01:31:28.062Z,0
2022-09-02T01:32:28.033Z,0
2022-09-02T01:33:29.626Z,0
2022-09-02T01:34:27.508Z,0
2022-09-02T01:35:27.527Z,0
2022-09-02T01:36:27.731Z,0
2022-09-02T01:37:27.459Z,0
2022-09-02T01:38:27.961Z,0
2022-09-02T01:39:27.684Z,0
2022-09-02T01:40:27.682Z,0
2022-09-02T01:41:27.940Z,0
2022-09-02T01:42:27.649Z,0
2022-09-02T01:43:28.184Z,0
2022-09-02T01:44:27.625Z,0
2022-09-02T01:45:27.361Z,0
2022-09-02T01:46:28.116Z,0
2022-09-02T01:47:27.071Z,0
2022-09-02T01:48:28.829Z,0
2022-09-02T01:49:27.309Z,0
2022-09-02T01:50:27.291Z,0
2022-09-02T01:51:27.811Z,0
2022-09-02T01:52:27.531Z,0
2022-09-02T01:53:27.812Z,0
2022-09-02T01:54:27.243Z,0
2022-09-02T01:55:26.974Z,0
2022-09-02T01:56:27.730Z,0
2022-09-02T01:57:27.464Z,0
2022-09-02T01:58:27.444Z,0
2022-09-02T01:59:27.693Z,0
2022-09-02T02:00:27.813Z,0
2022-09-02T02:01:27.662Z,0
2022-09-02T02:02:28.101Z,0
2022-09-02T02:03:28.117Z,0
2022-09-02T02:04:30.121Z,0
2022-09-02T02:05:27.107Z,0
2022-09-02T02:06:27.104Z,0
2022-09-02T02:07:27.345Z,0
2022-09-02T02:08:27.320Z,0
2022-09-02T02:09:27.051Z,0
2022-09-02T02:10:27.547Z,0
2022-09-02T02:11:27.029Z,0
2022-09-02T02:12:27.271Z,0
2022-09-02T02:13:27.476Z,0
2022-09-02T02:14:27.081Z,0
2022-09-02T02:16:27.820Z,0
2022-09-02T02:17:27.205Z,0
2022-09-02T02:18:27.881Z,0
2022-09-02T02:19:26.922Z,0
2022-09-02T02:20:27.424Z,0
2022-09-02T02:21:27.746Z,0
2022-09-02T02:22:27.391Z,0
2022-09-02T02:23:27.579Z,0
2022-09-02T02:24:59.194Z,0
2022-09-02T02:25:27.355Z,0
2022-09-02T02:26:26.878Z,0
2022-09-02T02:27:26.821Z,0
2022-09-02T02:28:27.069Z,0
2022-09-02T02:29:27.310Z,0
2022-09-02T02:30:27.044Z,0
2022-09-02T02:31:27.370Z,0
2022-09-02T02:32:26.514Z,0
2022-09-02T02:33:38.763Z,0
2022-09-02T02:34:27.266Z,0
2022-09-02T02:35:27.246Z,0
2022-09-02T02:36:27.236Z,0
2022-09-02T02:37:31.924Z,0
2022-09-02T02:38:27.198Z,0
2022-09-02T02:39:26.921Z,0
2022-09-02T02:40:26.911Z,0
2022-09-02T02:41:26.895Z,0
2022-09-02T02:42:26.886Z,0
2022-09-02T02:43:27.076Z,0
2022-09-02T02:44:27.117Z,0
2022-09-02T02:45:26.590Z,0
2022-09-02T02:46:27.605Z,0
2022-09-02T02:47:27.078Z,0
2022-09-02T02:48:27.056Z,0
2022-09-02T02:49:26.281Z,0
2022-09-02T02:50:26.784Z,0
2022-09-02T02:51:26.767Z,0
2022-09-02T02:52:26.751Z,0
2022-09-02T02:53:27.231Z,0
2022-09-02T02:54:37.114Z,0
2022-09-02T02:55:26.981Z,0
2022-09-02T02:56:26.441Z,0
2022-09-02T02:57:26.690Z,0
2022-09-02T02:58:26.412Z,0
2022-09-02T02:59:26.662Z,0
2022-09-02T03:00:26.658Z,0
2022-09-02T03:01:26.674Z,0
2022-09-02T03:02:27.585Z,0
2022-09-02T03:03:27.289Z,0
2022-09-02T03:04:26.340Z,0
2022-09-02T03:05:26.326Z,0
2022-09-02T03:06:31.588Z,0
2022-09-02T03:07:26.560Z,0
2022-09-02T03:08:26.802Z,0
2022-09-02T03:09:26.273Z,0
2022-09-02T03:10:26.524Z,0
2022-09-02T03:11:26.513Z,0
2022-09-02T03:12:26.483Z,0
2022-09-02T03:13:26.727Z,0
2022-09-02T03:14:26.474Z,0
2022-09-02T03:15:26.464Z,0
2022-09-02T03:16:26.996Z,0
2022-09-02T03:17:26.168Z,0
2022-09-02T03:18:26.659Z,0
2022-09-02T03:19:25.891Z,0
2022-09-02T03:20:27.982Z,0
2022-09-02T03:21:26.376Z,0
2022-09-02T03:22:26.360Z,0
2022-09-02T03:23:26.637Z,0
2022-09-02T03:24:26.083Z,0
2022-09-02T03:25:27.552Z,0
2022-09-02T03:26:25.796Z,0
2022-09-02T03:27:26.292Z,0
2022-09-02T03:28:26.275Z,0
2022-09-02T03:29:25.756Z,0
2022-09-02T03:30:26.505Z,0
2022-09-02T03:31:26.331Z,0
2022-09-02T03:32:32.806Z,0
2022-09-02T03:49:51.051Z,0
2022-09-02T03:50:50.574Z,0
2022-09-02T03:51:50.559Z,0
2022-09-02T03:52:50.557Z,0
2022-09-02T03:53:50.773Z,4
2022-09-02T03:54:50.505Z,0
2022-09-02T03:55:53.079Z,0
2022-09-02T03:56:51.779Z,4
2022-09-02T03:57:50.203Z,0
2022-09-02T03:58:50.415Z,4
2022-09-02T03:59:50.178Z,4
2022-09-02T04:00:50.417Z,4
2022-09-02T04:01:50.660Z,8
2022-09-02T04:02:54.618Z,4
2022-09-02T04:03:50.375Z,8
2022-09-02T04:04:50.356Z,12
2022-09-02T04:05:50.602Z,12
2022-09-02T04:06:50.593Z,16
2022-09-02T04:07:53.928Z,20
2022-09-02T04:08:50.560Z,20
2022-09-02T04:09:53.853Z,24
2022-09-02T04:10:50.021Z,28
2022-09-02T04:11:50.520Z,32
2022-09-02T04:12:49.985Z,36
2022-09-02T04:13:50.228Z,44
2022-09-02T04:14:52.691Z,48
2022-09-02T04:15:50.890Z,56
2022-09-02T04:16:50.457Z,64
2022-09-02T04:17:50.188Z,72
2022-09-02T04:18:49.908Z,80
2022-09-02T04:19:50.402Z,92
2022-09-02T04:20:50.479Z,104
2022-09-02T04:21:50.113Z,116
2022-09-02T04:22:49.848Z,132
2022-09-02T04:23:50.088Z,140
2022-09-02T04:24:49.821Z,156
2022-09-02T04:25:50.315Z,172
2022-09-02T04:26:52.527Z,188
2022-09-02T04:27:50.290Z,204
2022-09-02T04:28:49.510Z,220
2022-09-02T04:29:50.166Z,240
2022-09-02T04:30:50.319Z,256
2022-09-02T04:31:50.483Z,276
2022-09-02T04:32:49.969Z,300
2022-09-02T04:33:49.947Z,320
2022-09-02T04:34:52.358Z,344
2022-09-02T04:35:50.171Z,364
2022-09-02T04:36:49.912Z,388
2022-09-02T04:37:49.395Z,412
2022-09-02T04:38:52.450Z,440
2022-09-02T04:39:49.876Z,460
2022-09-02T04:40:50.228Z,488
2022-09-02T04:41:50.118Z,512
2022-09-02T04:42:49.572Z,544
2022-09-02T04:43:49.562Z,568
2022-09-02T04:44:50.051Z,596
2022-09-02T04:45:49.800Z,620
2022-09-02T04:46:52.418Z,648
2022-09-02T04:47:52.598Z,680
2022-09-02T04:48:49.243Z,704
2022-09-02T04:49:49.733Z,732
2022-09-02T04:50:49.981Z,764
2022-09-02T04:51:49.958Z,792
2022-09-02T04:52:49.943Z,820
2022-09-02T04:53:49.447Z,848
2022-09-02T04:54:49.932Z,876
2022-09-02T04:55:50.698Z,900
2022-09-02T04:56:49.636Z,928
2022-09-02T04:57:49.620Z,956
2022-09-02T04:58:49.609Z,980
2022-09-02T04:59:49.339Z,1000
2022-09-02T05:00:49.066Z,1024
2022-09-02T05:01:50.627Z,1052
2022-09-02T05:02:49.508Z,1076
2022-09-02T05:03:49.542Z,1104
2022-09-02T05:04:49.275Z,1128
2022-09-02T05:05:49.775Z,1156
2022-09-02T05:06:51.605Z,1176
2022-09-02T05:07:49.483Z,1204
2022-09-02T05:08:48.959Z,1232
2022-09-02T05:09:52.866Z,1260
2022-09-02T05:10:49.441Z,1284
2022-09-02T05:11:49.438Z,1308
2022-09-02T05:12:49.668Z,1332
2022-09-02T05:13:49.657Z,1348
2022-09-02T05:14:49.435Z,1372
2022-09-02T05:15:49.655Z,1392
2022-09-02T05:16:49.111Z,1416
2022-09-02T05:17:49.346Z,1436
2022-09-02T05:18:49.332Z,1456
2022-09-02T05:19:49.324Z,1472
2022-09-02T05:20:49.306Z,1488
2022-09-02T05:21:49.313Z,1504
2022-09-02T05:22:49.023Z,1520
2022-09-02T05:23:49.015Z,1536
2022-09-02T05:24:48.750Z,1556
2022-09-02T05:25:49.241Z,1576
2022-09-02T05:26:48.996Z,1592
2022-09-02T05:27:49.470Z,1604
2022-09-02T05:28:49.197Z,1620
2022-09-02T05:29:52.163Z,1640
2022-09-02T05:30:49.189Z,1656
2022-09-02T05:31:48.903Z,1680
2022-09-02T05:32:49.402Z,1704
2022-09-02T05:33:49.403Z,1724
2022-09-02T05:34:49.126Z,1736
2022-09-02T05:35:54.401Z,1748
2022-09-02T05:36:48.861Z,1768
2022-09-02T05:37:49.077Z,1796
2022-09-02T05:38:49.071Z,1828
2022-09-02T05:39:48.994Z,1848
2022-09-02T05:40:49.089Z,1860
2022-09-02T05:41:49.036Z,1868
2022-09-02T05:42:51.133Z,1872
2022-09-02T05:43:48.999Z,1892
2022-09-02T05:44:48.771Z,1920
2022-09-02T05:45:49.252Z,1940
2022-09-02T05:46:53.800Z,1952
2022-09-02T05:47:49.102Z,1956
2022-09-02T05:48:48.938Z,1960
2022-09-02T05:49:48.916Z,1976
2022-09-02T05:50:59.918Z,1992
2022-09-02T05:51:49.161Z,1992
2022-09-02T05:52:48.629Z,1992
2022-09-02T05:53:49.130Z,1996
2022-09-02T05:54:48.856Z,2008
2022-09-02T05:55:49.103Z,2020
2022-09-02T05:56:52.194Z,2032
2022-09-02T05:57:48.815Z,2036
2022-09-02T05:58:48.556Z,2040
2022-09-02T05:59:48.536Z,2052
2022-09-02T06:00:48.524Z,2072
2022-09-02T06:01:48.847Z,2088
2022-09-02T06:02:49.059Z,2096
2022-09-02T06:03:49.477Z,2108
2022-09-02T06:04:48.726Z,2116
2022-09-02T06:05:48.711Z,2128
2022-09-02T06:06:48.450Z,2140
2022-09-02T06:07:48.433Z,2152
2022-09-02T06:08:48.937Z,2160
2022-09-02T06:09:48.663Z,2164
2022-09-02T06:10:48.665Z,2172
2022-09-02T06:11:49.388Z,2180
2022-09-02T06:12:49.754Z,2188
2022-09-02T06:13:48.356Z,2204
2022-09-02T06:14:48.608Z,2224
2022-09-02T06:15:48.753Z,2244
2022-09-02T06:16:48.611Z,2248
2022-09-02T06:17:48.560Z,2248
2022-09-02T06:18:49.513Z,2244
2022-09-02T06:19:49.624Z,2244
2022-09-02T06:20:48.535Z,2244
2022-09-02T06:21:48.513Z,2248
2022-09-02T06:22:48.497Z,2256
2022-09-02T06:23:48.486Z,2264
2022-09-02T06:24:48.216Z,2268
2022-09-02T06:25:48.736Z,2264
2022-09-02T06:26:48.195Z,2268
2022-09-02T06:27:48.437Z,2264
2022-09-02T06:28:48.173Z,2268
2022-09-02T06:29:48.415Z,2272
2022-09-02T06:30:48.687Z,2276
2022-09-02T06:31:48.400Z,2280
2022-09-02T06:32:54.992Z,2292
2022-09-02T06:33:48.366Z,2300
2022-09-02T06:34:48.603Z,2316
2022-09-02T06:35:48.343Z,2332
2022-09-02T06:36:48.966Z,2344
2022-09-02T06:37:48.321Z,2348
2022-09-02T06:38:52.377Z,2356
2022-09-02T06:39:48.548Z,2360
2022-09-02T06:40:48.691Z,2364
2022-09-02T06:41:48.533Z,2368
2022-09-02T06:42:48.261Z,2372
2022-09-02T06:43:52.705Z,2376
2022-09-02T06:44:48.486Z,2388
2022-09-02T06:45:48.366Z,2420
2022-09-02T06:46:47.703Z,2460
2022-09-02T06:47:47.954Z,2480
2022-09-02T06:48:48.442Z,2500
2022-09-02T06:49:47.663Z,2800
2022-09-02T06:50:48.164Z,2988
2022-09-02T06:51:47.896Z,3048
2022-09-02T06:52:48.531Z,3260
2022-09-02T06:53:47.871Z,2836
2022-09-02T06:54:47.606Z,3316
2022-09-02T06:55:48.105Z,4368
2022-09-02T06:56:53.877Z,5476
2022-09-02T06:57:47.824Z,5988
2022-09-02T06:58:49.793Z,6556
2022-09-02T06:59:47.804Z,5012
2022-09-02T07:00:48.055Z,3248
2022-09-02T07:01:48.881Z,2840
2022-09-02T07:02:48.280Z,3136
2022-09-02T07:03:47.759Z,3780
2022-09-02T07:04:48.013Z,3712
2022-09-02T07:05:48.013Z,3348
2022-09-02T07:06:48.237Z,3156
2022-09-02T07:07:47.483Z,3096
2022-09-02T07:08:47.708Z,3024
2022-09-02T07:09:48.213Z,2960
2022-09-02T07:10:47.698Z,2908
2022-09-02T07:11:48.197Z,2832
2022-09-02T07:12:51.672Z,2800
2022-09-02T07:13:48.177Z,2808
2022-09-02T07:14:47.918Z,2824
2022-09-02T07:15:47.684Z,2836
2022-09-02T07:16:48.016Z,2824
2022-09-02T07:17:47.888Z,2804
2022-09-02T07:18:48.480Z,2800
2022-09-02T07:19:47.361Z,2792
2022-09-02T07:20:47.883Z,2784
2022-09-02T07:21:47.851Z,2776
2022-09-02T07:22:47.839Z,2764
2022-09-02T07:23:48.177Z,2756
2022-09-02T07:24:47.572Z,2748
2022-09-02T07:25:48.077Z,2740
2022-09-02T07:26:47.564Z,2728
2022-09-02T07:27:47.545Z,2712
2022-09-02T07:28:47.295Z,2708
2022-09-02T07:29:47.784Z,2708
2022-09-02T07:30:47.721Z,2704
2022-09-02T07:31:47.777Z,2700
2022-09-02T07:32:47.768Z,2696
2022-09-02T07:33:52.452Z,2688
2022-09-02T07:34:47.746Z,2688
2022-09-02T07:35:47.738Z,2688
2022-09-02T07:36:47.727Z,2684
2022-09-02T07:37:47.724Z,2688
2022-09-02T07:38:47.464Z,2696
2022-09-02T07:39:49.203Z,2696
2022-09-02T07:40:47.908Z,2700
2022-09-02T07:41:47.173Z,2704
2022-09-02T07:42:47.911Z,2716
2022-09-02T07:43:52.122Z,2724
2022-09-02T07:44:47.676Z,2736
2022-09-02T07:45:47.576Z,2736
2022-09-02T07:46:51.451Z,2724
2022-09-02T07:47:49.439Z,2728
2022-09-02T07:48:47.903Z,2732
2022-09-02T07:50:26.377Z,2752
2022-09-02T07:50:47.629Z,2752
2022-09-02T07:51:47.868Z,2764
2022-09-02T07:52:48.910Z,2768
2022-09-02T07:53:47.610Z,2768
2022-09-02T07:54:47.591Z,2772
2022-09-02T07:55:47.836Z,2776
2022-09-02T07:56:47.065Z,2784
2022-09-02T07:57:47.825Z,2792
2022-09-02T07:58:47.567Z,2800
2022-09-02T07:59:47.299Z,2816
2022-09-02T08:00:47.294Z,2824
2022-09-02T08:01:48.021Z,2832
2022-09-02T08:02:48.160Z,2956
2022-09-02T08:03:47.272Z,3124
2022-09-02T08:04:47.010Z,3164
2022-09-02T08:05:47.006Z,3080
2022-09-02T08:06:47.502Z,3004
2022-09-02T08:07:47.238Z,2996
2022-09-02T08:08:47.231Z,2936
2022-09-02T08:09:47.583Z,2896
2022-09-02T08:10:47.492Z,2908
2022-09-02T08:11:47.476Z,2960
2022-09-02T08:12:47.718Z,3020
2022-09-02T08:13:47.469Z,3048
2022-09-02T08:14:47.738Z,3040
2022-09-02T08:15:50.597Z,3000
2022-09-02T08:16:47.885Z,2996
2022-09-02T08:17:47.715Z,2988
2022-09-02T08:18:47.686Z,3000
2022-09-02T08:19:47.258Z,3036
2022-09-02T08:20:47.424Z,3160
2022-09-02T08:21:47.152Z,3472
2022-09-02T08:23:01.091Z,4084
2022-09-02T08:23:48.460Z,4472
2022-09-02T08:24:47.405Z,4960
2022-09-02T08:25:47.382Z,5304
2022-09-02T08:26:47.112Z,5356
2022-09-02T08:27:47.295Z,5160
2022-09-02T08:28:47.361Z,4936
2022-09-02T08:29:47.105Z,4676
2022-09-02T08:30:46.858Z,4408
2022-09-02T08:31:48.692Z,4208
2022-09-02T08:32:47.075Z,4080
2022-09-02T08:33:47.334Z,3952
2022-09-02T08:34:47.400Z,3892
2022-09-02T08:35:47.065Z,3996
2022-09-02T08:37:01.181Z,4280
2022-09-02T08:37:47.569Z,4384
2022-09-02T08:38:47.311Z,4408
2022-09-02T08:39:46.795Z,4312
2022-09-02T08:40:47.356Z,4280
2022-09-02T08:41:46.816Z,4308
2022-09-02T08:42:49.716Z,4484
2022-09-02T08:43:47.371Z,4648
2022-09-02T08:44:47.034Z,4848
2022-09-02T08:45:47.248Z,5032
2022-09-02T08:46:47.007Z,5176
2022-09-02T08:47:47.263Z,5400
2022-09-02T08:48:46.752Z,5492
2022-09-02T08:49:47.502Z,5540
2022-09-02T08:50:48.163Z,5868
2022-09-02T08:51:46.994Z,6732
2022-09-02T08:52:47.492Z,7200
2022-09-02T08:53:47.485Z,7320
2022-09-02T08:54:47.322Z,6976
2022-09-02T08:55:46.711Z,6132
2022-09-02T08:56:46.713Z,6284
2022-09-02T08:57:51.329Z,6044
2022-09-02T08:58:47.209Z,5720
2022-09-02T08:59:46.962Z,5668
2022-09-02T09:00:47.176Z,5960
2022-09-02T09:01:47.208Z,6408
2022-09-02T09:02:53.222Z,6928
2022-09-02T09:03:46.934Z,7068
2022-09-02T09:04:47.077Z,7216
2022-09-02T09:05:47.212Z,7708
2022-09-02T09:06:47.183Z,8520
2022-09-02T09:07:46.924Z,8960
2022-09-02T09:08:46.911Z,8808
2022-09-02T09:09:47.161Z,8712
2022-09-02T09:10:48.597Z,8524
2022-09-02T09:11:47.162Z,8376
2022-09-02T09:12:46.929Z,7984
2022-09-02T09:13:48.542Z,7640
2022-09-02T09:14:46.889Z,7712
2022-09-02T09:15:46.889Z,7408
2022-09-02T09:16:47.641Z,6632
2022-09-02T09:17:46.884Z,6492
2022-09-02T09:18:47.394Z,6860
2022-09-02T09:19:46.876Z,7608
2022-09-02T09:20:46.884Z,8044
2022-09-02T09:21:46.890Z,8308
2022-09-02T09:22:47.394Z,7844
2022-09-02T09:23:47.119Z,7660
2022-09-02T09:24:47.195Z,8232
2022-09-02T09:25:46.851Z,7940
2022-09-02T09:26:47.106Z,8016
2022-09-02T09:27:47.208Z,7864
2022-09-02T09:28:47.107Z,8000
2022-09-02T09:29:46.766Z,7588
2022-09-02T09:30:46.843Z,7236
2022-09-02T09:31:46.824Z,7144
2022-09-02T09:32:47.087Z,7244
2022-09-02T09:33:46.830Z,7656
2022-09-02T09:34:47.154Z,8484
2022-09-02T09:35:47.080Z,8788
2022-09-02T09:36:47.086Z,8564
2022-09-02T09:37:47.073Z,8080
2022-09-02T09:38:47.324Z,7324
2022-09-02T09:39:47.042Z,7204
2022-09-02T09:40:47.377Z,7304
2022-09-02T09:41:47.317Z,7012
2022-09-02T09:42:52.523Z,6212
2022-09-02T09:43:46.807Z,5956
2022-09-02T09:44:47.296Z,5796
2022-09-02T09:45:46.855Z,5752
2022-09-02T09:46:47.052Z,5824
2022-09-02T09:47:50.322Z,5920
2022-09-02T09:48:46.788Z,5868
2022-09-02T09:49:46.784Z,5760
2022-09-02T09:50:46.779Z,5644
2022-09-02T09:51:57.069Z,5728
2022-09-02T09:52:47.034Z,5744
2022-09-02T09:53:47.285Z,5624
2022-09-02T09:54:46.834Z,5680
2022-09-02T09:55:46.769Z,5792
2022-09-02T09:56:46.770Z,5992
2022-09-02T09:57:49.880Z,6316
2022-09-02T09:58:47.264Z,6656
2022-09-02T09:59:47.011Z,7012
2022-09-02T10:00:47.262Z,7472
2022-09-02T10:01:47.201Z,7936
2022-09-02T10:02:47.461Z,8468
2022-09-02T10:03:47.264Z,9276
2022-09-02T10:04:50.322Z,9748
2022-09-02T10:05:47.296Z,9992
2022-09-02T10:06:46.990Z,10288
2022-09-02T10:07:49.640Z,10820
2022-09-02T10:08:46.987Z,11216
2022-09-02T10:09:46.726Z,10872
2022-09-02T10:10:46.976Z,10816
2022-09-02T10:11:46.729Z,10888
2022-09-02T10:12:47.351Z,10888
2022-09-02T10:13:46.707Z,10796
2022-09-02T10:14:46.722Z,10536
2022-09-02T10:15:46.448Z,10392
2022-09-02T10:16:47.184Z,10308
2022-09-02T10:17:46.697Z,10108
2022-09-02T10:18:51.434Z,9972
2022-09-02T10:19:46.690Z,10032
2022-09-02T10:21:20.143Z,10888
2022-09-02T10:21:51.660Z,11216
2022-09-02T10:23:07.454Z,11880
2022-09-02T10:23:46.418Z,12084
2022-09-02T10:24:46.412Z,12360
2022-09-02T10:25:47.186Z,12636
2022-09-02T10:26:46.664Z,12136
2022-09-02T10:27:46.706Z,12008
2022-09-02T10:28:46.659Z,11860
2022-09-02T10:29:47.167Z,11576
2022-09-02T10:30:46.655Z,11252
2022-09-02T10:31:46.951Z,10648
2022-09-02T10:32:46.644Z,10448
2022-09-02T10:33:47.161Z,10020
2022-09-02T10:34:47.053Z,9704
2022-09-02T10:35:47.023Z,9496
2022-09-02T10:36:47.382Z,9216
2022-09-02T10:37:46.891Z,9032
2022-09-02T10:38:46.898Z,9008
2022-09-02T10:39:46.898Z,8996
2022-09-02T10:40:47.231Z,9036
2022-09-02T10:41:47.727Z,9092
2022-09-02T10:42:47.524Z,9236
2022-09-02T10:43:46.614Z,9436
2022-09-02T10:44:46.902Z,9644
2022-09-02T10:45:46.867Z,9880
2022-09-02T10:46:47.051Z,10088
2022-09-02T10:47:47.403Z,10200
2022-09-02T10:48:46.352Z,10276
2022-09-02T10:49:46.852Z,10508
2022-09-02T10:50:52.476Z,10692
2022-09-02T10:51:46.850Z,10876
2022-09-02T10:52:46.590Z,11084
2022-09-02T10:53:46.837Z,11036
2022-09-02T10:54:46.583Z,10608
2022-09-02T10:55:46.833Z,10088
2022-09-02T10:56:49.506Z,9644
2022-09-02T10:57:46.577Z,9164
2022-09-02T10:58:46.612Z,8792
2022-09-02T10:59:46.577Z,8476
2022-09-02T11:00:47.069Z,8632
2022-09-02T11:01:49.163Z,8148
2022-09-02T11:02:46.566Z,7172
2022-09-02T11:03:52.057Z,6728
2022-09-02T11:04:46.306Z,6504
2022-09-02T11:05:46.554Z,6520
2022-09-02T11:07:08.630Z,6588
2022-09-02T11:07:46.574Z,6344
2022-09-02T11:08:46.290Z,5940
2022-09-02T11:09:46.538Z,5528
2022-09-02T11:10:46.282Z,5264
2022-09-02T11:11:46.532Z,4972
2022-09-02T11:12:46.535Z,4832
2022-09-02T11:13:47.078Z,4788
2022-09-02T11:14:49.854Z,4944
2022-09-02T11:15:49.673Z,5248
2022-09-02T11:16:47.102Z,5536
2022-09-02T11:17:46.259Z,5556
2022-09-02T11:18:49.635Z,5604
2022-09-02T11:19:47.300Z,5600
2022-09-02T11:20:46.764Z,5640
2022-09-02T11:21:46.556Z,5620
2022-09-02T11:22:47.098Z,5948
2022-09-02T11:23:46.710Z,6204
2022-09-02T11:24:51.430Z,6300
2022-09-02T11:25:46.544Z,6356
2022-09-02T11:26:46.736Z,6328
2022-09-02T11:27:50.001Z,6192
2022-09-02T11:28:46.678Z,6404
2022-09-02T11:29:47.061Z,6880
2022-09-02T11:30:47.198Z,7404
2022-09-02T11:31:46.739Z,7368
2022-09-02T11:32:46.655Z,7608
2022-09-02T11:33:46.726Z,7500
2022-09-02T11:34:46.982Z,7260
2022-09-02T11:35:46.726Z,7128
2022-09-02T11:36:46.445Z,6980
2022-09-02T11:37:47.156Z,7208
2022-09-02T11:38:46.439Z,7608
2022-09-02T11:41:31.086Z,8180
2022-09-02T11:41:46.025Z,7988
2022-09-02T11:42:44.694Z,7704
2022-09-02T11:43:44.800Z,7340
2022-09-02T11:45:06.099Z,6500
2022-09-02T11:45:49.051Z,6372
2022-09-02T11:46:45.320Z,6084
2022-09-02T11:47:52.864Z,5308
2022-09-02T11:48:45.173Z,4968
2022-09-02T11:49:44.650Z,4740
2022-09-02T11:50:46.676Z,4488
2022-09-02T11:51:44.920Z,4396
2022-09-02T11:52:45.154Z,4532
2022-09-02T11:53:45.267Z,4628
2022-09-02T11:54:45.567Z,4880
2022-09-02T11:55:45.661Z,5288
2022-09-02T11:56:44.904Z,5704
2022-09-02T11:57:45.133Z,6260
2022-09-02T11:58:44.611Z,6388
2022-09-02T11:59:44.357Z,6348
2022-09-02T12:00:45.719Z,5828
2022-09-02T12:01:51.560Z,5412
2022-09-02T12:02:45.111Z,5548
2022-09-02T12:05:04.964Z,5808
2022-09-02T12:05:16.874Z,5832
2022-09-02T12:06:16.339Z,6092
2022-09-02T12:07:17.956Z,6352
2022-09-02T12:08:16.204Z,6848
2022-09-02T12:09:15.521Z,6704
2022-09-02T12:10:18.403Z,6492
2022-09-02T12:11:16.375Z,6432
2022-09-02T12:12:16.802Z,6408
2022-09-02T12:13:16.880Z,6260
2022-09-02T12:14:16.624Z,5908
2022-09-02T12:15:15.752Z,5404
2022-09-02T12:16:16.115Z,5000
2022-09-02T12:17:16.681Z,4780
2022-09-02T12:18:15.283Z,4648
2022-09-02T12:19:16.437Z,4588
2022-09-02T12:20:15.733Z,4680
2022-09-02T12:21:28.426Z,4916
2022-09-02T12:22:15.723Z,5160
2022-09-02T12:23:15.782Z,5504
2022-09-02T12:24:15.709Z,6096
2022-09-02T12:25:15.457Z,6776
2022-09-02T12:26:21.222Z,7264
2022-09-02T12:27:15.444Z,7548
2022-09-02T12:28:27.776Z,7712
2022-09-02T12:29:16.633Z,7792
2022-09-02T12:30:15.545Z,7940
2022-09-02T12:31:17.139Z,7904
2022-09-02T12:32:15.685Z,7792
2022-09-02T12:33:15.671Z,7728
2022-09-02T12:34:18.380Z,7688
2022-09-02T12:35:16.181Z,7692
2022-09-02T12:36:15.408Z,7568
2022-09-02T12:37:16.143Z,7512
2022-09-02T12:38:15.643Z,7436
2022-09-02T12:39:18.697Z,7332
2022-09-02T12:40:20.026Z,7232
2022-09-02T12:41:20.314Z,7080
2022-09-02T12:42:16.085Z,7080
2022-09-02T12:43:15.647Z,7196
2022-09-02T12:44:18.402Z,7288
2022-09-02T12:45:17.132Z,7164
2022-09-02T12:46:15.604Z,6856
2022-09-02T12:47:15.875Z,6772
2022-09-02T12:48:15.854Z,7064
2022-09-02T12:49:15.607Z,7472
2022-09-02T12:50:18.369Z,7724
2022-09-02T12:51:15.596Z,7840
2022-09-02T12:52:15.091Z,7572
2022-09-02T12:53:20.917Z,7504
2022-09-02T12:54:15.594Z,7756
2022-09-02T12:55:15.073Z,8248
2022-09-02T12:56:17.517Z,8672
2022-09-02T12:57:15.577Z,8568
2022-09-02T12:58:15.112Z,8712
2022-09-02T12:59:15.322Z,8524
2022-09-02T13:00:15.329Z,8204
2022-09-02T13:01:15.768Z,7896
2022-09-02T13:02:15.577Z,7764
2022-09-02T13:03:15.304Z,7744
2022-09-02T13:04:15.332Z,7776
2022-09-02T13:05:15.297Z,7672
2022-09-02T13:06:15.546Z,7476
2022-09-02T13:07:15.545Z,7304
2022-09-02T13:08:15.292Z,7256
2022-09-02T13:09:15.836Z,7556
2022-09-02T13:10:15.575Z,8120
2022-09-02T13:11:15.532Z,8460
2022-09-02T13:12:15.531Z,8652
2022-09-02T13:13:15.272Z,8744
2022-09-02T13:14:15.287Z,8840
2022-09-02T13:15:15.262Z,8944
2022-09-02T13:16:25.270Z,9300
2022-09-02T13:17:47.781Z,9912
2022-09-02T13:18:15.804Z,10108
2022-09-02T13:19:16.103Z,10444
2022-09-02T13:20:15.948Z,10332
2022-09-02T13:21:15.502Z,10072
2022-09-02T13:22:17.667Z,9412
2022-09-02T13:23:18.210Z,9140
2022-09-02T13:24:16.173Z,9056
2022-09-02T13:25:18.082Z,9316
2022-09-02T13:26:50.637Z,9604
2022-09-02T13:27:20.294Z,9492
2022-09-02T13:28:16.828Z,9436
2022-09-02T13:29:15.342Z,9524
2022-09-02T13:30:15.472Z,9536
2022-09-02T13:31:16.009Z,9576
2022-09-02T13:32:15.470Z,9892
2022-09-02T13:33:15.269Z,9888
2022-09-02T13:34:15.203Z,9668
2022-09-02T13:35:14.962Z,9216
2022-09-02T13:36:15.719Z,8844
2022-09-02T13:37:17.448Z,8432
2022-09-02T13:38:16.413Z,8124
2022-09-02T13:39:15.096Z,7500
2022-09-02T13:40:15.450Z,7228
2022-09-02T13:41:16.406Z,7112
2022-09-02T13:42:22.022Z,6976
2022-09-02T13:43:15.186Z,6780
2022-09-02T13:44:15.698Z,6664
2022-09-02T13:45:15.226Z,6192
2022-09-02T13:46:15.871Z,6132
2022-09-02T13:47:15.435Z,5964
2022-09-02T13:48:16.279Z,5828
2022-09-02T13:49:14.915Z,5704
2022-09-02T13:50:15.437Z,5672
2022-09-02T13:51:15.418Z,5752
2022-09-02T13:52:45.914Z,5764
2022-09-02T13:54:30.794Z,6084
2022-09-02T13:55:12.110Z,6256
2022-09-02T13:56:12.516Z,6528
2022-09-02T13:57:12.417Z,6816
2022-09-02T13:58:12.255Z,6980
2022-09-02T13:59:11.911Z,7128
2022-09-02T14:00:12.599Z,7404
2022-09-02T14:01:13.021Z,7652
2022-09-02T14:02:12.780Z,7852